sensor_id;sensor_type;location;lat;lon;timestamp;P1;durP1;ratioP1;P2;durP2;ratioP2
77701;SDS011;66868;42.708;23.404;2023-04-29T00:01:30;4.90;;;4.47;;
77701;SDS011;66868;42.708;23.404;2023-04-29T00:03:55;7.45;;;5.45;;
77701;SDS011;66868;42.708;23.404;2023-04-29T00:06:21;12.00;;;5.82;;
77701;SDS011;66868;42.708;23.404;2023-04-29T00:08:47;5.50;;;5.07;;
77701;SDS011;66868;42.708;23.404;2023-04-29T00:11:12;8.00;;;5.60;;
77701;SDS011;66868;42.708;23.404;2023-04-29T00:13:38;7.20;;;6.32;;
77701;SDS011;66868;42.708;23.404;2023-04-29T00:16:05;7.43;;;6.00;;
77701;SDS011;66868;42.708;23.404;2023-04-29T00:18:31;6.20;;;5.70;;
77701;SDS011;66868;42.708;23.404;2023-04-29T00:20:56;13.35;;;7.30;;
77701;SDS011;66868;42.708;23.404;2023-04-29T00:23:22;12.45;;;9.57;;
77701;SDS011;66868;42.708;23.404;2023-04-29T00:25:47;17.95;;;9.73;;
77701;SDS011;66868;42.708;23.404;2023-04-29T00:28:13;13.45;;;8.85;;
77701;SDS011;66868;42.708;23.404;2023-04-29T00:30:38;19.17;;;9.32;;
77701;SDS011;66868;42.708;23.404;2023-04-29T00:33:03;10.57;;;8.82;;
77701;SDS011;66868;42.708;23.404;2023-04-29T00:35:29;15.30;;;9.32;;
77701;SDS011;66868;42.708;23.404;2023-04-29T00:37:54;14.77;;;8.77;;
77701;SDS011;66868;42.708;23.404;2023-04-29T00:40:20;13.10;;;9.10;;
77701;SDS011;66868;42.708;23.404;2023-04-29T00:42:45;13.80;;;9.30;;
77701;SDS011;66868;42.708;23.404;2023-04-29T00:45:11;13.13;;;9.40;;
77701;SDS011;66868;42.708;23.404;2023-04-29T00:47:37;13.67;;;9.13;;
77701;SDS011;66868;42.708;23.404;2023-04-29T00:50:03;12.07;;;7.93;;
77701;SDS011;66868;42.708;23.404;2023-04-29T00:52:29;15.95;;;8.10;;
77701;SDS011;66868;42.708;23.404;2023-04-29T00:54:58;12.65;;;7.25;;
77701;SDS011;66868;42.708;23.404;2023-04-29T00:57:24;10.03;;;7.67;;
77701;SDS011;66868;42.708;23.404;2023-04-29T00:59:49;13.95;;;8.60;;
77701;SDS011;66868;42.708;23.404;2023-04-29T01:02:16;12.10;;;8.90;;
77701;SDS011;66868;42.708;23.404;2023-04-29T01:04:42;10.68;;;8.50;;
77701;SDS011;66868;42.708;23.404;2023-04-29T01:15:04;9.13;;;7.27;;
77701;SDS011;66868;42.708;23.404;2023-04-29T01:17:38;11.93;;;8.07;;
77701;SDS011;66868;42.708;23.404;2023-04-29T01:20:09;11.82;;;7.57;;
77701;SDS011;66868;42.708;23.404;2023-04-29T01:22:35;13.02;;;7.93;;
77701;SDS011;66868;42.708;23.404;2023-04-29T01:25:01;14.65;;;8.38;;
77701;SDS011;66868;42.708;23.404;2023-04-29T01:32:35;11.77;;;7.90;;
77701;SDS011;66868;42.708;23.404;2023-04-29T01:35:14;15.32;;;8.90;;
77701;SDS011;66868;42.708;23.404;2023-04-29T01:38:12;13.27;;;8.47;;
77701;SDS011;66868;42.708;23.404;2023-04-29T01:40:49;10.00;;;8.07;;
77701;SDS011;66868;42.708;23.404;2023-04-29T01:43:23;11.55;;;7.90;;
77701;SDS011;66868;42.708;23.404;2023-04-29T01:45:54;12.60;;;8.30;;
77701;SDS011;66868;42.708;23.404;2023-04-29T01:48:20;13.38;;;8.13;;
77701;SDS011;66868;42.708;23.404;2023-04-29T01:50:46;10.80;;;8.00;;
77701;SDS011;66868;42.708;23.404;2023-04-29T01:53:11;11.63;;;7.53;;
77701;SDS011;66868;42.708;23.404;2023-04-29T01:55:37;9.00;;;7.37;;
77701;SDS011;66868;42.708;23.404;2023-04-29T01:58:02;8.10;;;7.28;;
77701;SDS011;66868;42.708;23.404;2023-04-29T02:00:27;8.50;;;7.13;;
77701;SDS011;66868;42.708;23.404;2023-04-29T02:02:53;13.10;;;7.43;;
77701;SDS011;66868;42.708;23.404;2023-04-29T02:05:18;9.93;;;7.10;;
77701;SDS011;66868;42.708;23.404;2023-04-29T02:07:44;8.10;;;7.30;;
77701;SDS011;66868;42.708;23.404;2023-04-29T02:10:09;8.20;;;7.10;;
77701;SDS011;66868;42.708;23.404;2023-04-29T02:12:35;9.85;;;6.68;;
77701;SDS011;66868;42.708;23.404;2023-04-29T02:15:01;9.53;;;7.53;;
77701;SDS011;66868;42.708;23.404;2023-04-29T02:17:26;11.13;;;7.88;;
77701;SDS011;66868;42.708;23.404;2023-04-29T02:19:52;10.73;;;7.07;;
77701;SDS011;66868;42.708;23.404;2023-04-29T02:22:19;10.63;;;7.97;;
77701;SDS011;66868;42.708;23.404;2023-04-29T02:24:44;10.82;;;7.90;;
77701;SDS011;66868;42.708;23.404;2023-04-29T02:27:10;14.17;;;7.47;;
77701;SDS011;66868;42.708;23.404;2023-04-29T02:29:35;9.07;;;6.88;;
77701;SDS011;66868;42.708;23.404;2023-04-29T02:32:01;8.32;;;6.88;;
77701;SDS011;66868;42.708;23.404;2023-04-29T02:34:26;12.37;;;7.80;;
77701;SDS011;66868;42.708;23.404;2023-04-29T02:36:52;10.80;;;7.20;;
77701;SDS011;66868;42.708;23.404;2023-04-29T02:39:17;13.40;;;7.23;;
77701;SDS011;66868;42.708;23.404;2023-04-29T02:41:44;7.07;;;6.23;;
77701;SDS011;66868;42.708;23.404;2023-04-29T02:44:09;7.37;;;6.40;;
77701;SDS011;66868;42.708;23.404;2023-04-29T02:46:35;14.20;;;6.77;;
77701;SDS011;66868;42.708;23.404;2023-04-29T02:49:01;8.17;;;6.13;;
77701;SDS011;66868;42.708;23.404;2023-04-29T02:51:27;10.47;;;5.87;;
77701;SDS011;66868;42.708;23.404;2023-04-29T02:53:53;13.07;;;7.67;;
77701;SDS011;66868;42.708;23.404;2023-04-29T02:56:18;11.13;;;8.27;;
77701;SDS011;66868;42.708;23.404;2023-04-29T02:58:44;11.53;;;7.93;;
77701;SDS011;66868;42.708;23.404;2023-04-29T03:01:09;11.20;;;7.70;;
77701;SDS011;66868;42.708;23.404;2023-04-29T03:03:35;7.47;;;6.53;;
77701;SDS011;66868;42.708;23.404;2023-04-29T03:06:00;10.40;;;7.13;;
77701;SDS011;66868;42.708;23.404;2023-04-29T03:08:26;8.87;;;7.00;;
77701;SDS011;66868;42.708;23.404;2023-04-29T03:10:52;15.30;;;6.60;;
77701;SDS011;66868;42.708;23.404;2023-04-29T03:13:17;9.90;;;6.33;;
77701;SDS011;66868;42.708;23.404;2023-04-29T03:15:43;7.40;;;6.60;;
77701;SDS011;66868;42.708;23.404;2023-04-29T03:18:08;7.87;;;6.30;;
77701;SDS011;66868;42.708;23.404;2023-04-29T03:20:34;6.90;;;5.80;;
77701;SDS011;66868;42.708;23.404;2023-04-29T03:22:59;10.53;;;6.23;;
77701;SDS011;66868;42.708;23.404;2023-04-29T03:25:25;9.33;;;6.07;;
77701;SDS011;66868;42.708;23.404;2023-04-29T03:27:50;6.70;;;6.00;;
77701;SDS011;66868;42.708;23.404;2023-04-29T03:30:15;8.83;;;6.10;;
77701;SDS011;66868;42.708;23.404;2023-04-29T03:32:41;7.03;;;6.33;;
77701;SDS011;66868;42.708;23.404;2023-04-29T03:35:07;10.90;;;6.43;;
77701;SDS011;66868;42.708;23.404;2023-04-29T03:37:32;7.00;;;6.30;;
77701;SDS011;66868;42.708;23.404;2023-04-29T03:39:58;8.27;;;6.10;;
77701;SDS011;66868;42.708;23.404;2023-04-29T03:42:23;10.90;;;6.30;;
77701;SDS011;66868;42.708;23.404;2023-04-29T03:44:48;8.43;;;6.50;;
77701;SDS011;66868;42.708;23.404;2023-04-29T03:47:14;10.43;;;5.90;;
77701;SDS011;66868;42.708;23.404;2023-04-29T03:49:39;8.20;;;6.43;;
77701;SDS011;66868;42.708;23.404;2023-04-29T03:52:05;15.30;;;6.20;;
77701;SDS011;66868;42.708;23.404;2023-04-29T03:54:30;8.50;;;7.10;;
77701;SDS011;66868;42.708;23.404;2023-04-29T03:56:56;7.97;;;6.17;;
77701;SDS011;66868;42.708;23.404;2023-04-29T03:59:21;7.90;;;6.37;;
77701;SDS011;66868;42.708;23.404;2023-04-29T04:01:47;13.20;;;8.07;;
77701;SDS011;66868;42.708;23.404;2023-04-29T04:04:12;10.27;;;7.07;;
77701;SDS011;66868;42.708;23.404;2023-04-29T04:06:38;14.67;;;7.83;;
77701;SDS011;66868;42.708;23.404;2023-04-29T04:09:03;10.20;;;7.47;;
77701;SDS011;66868;42.708;23.404;2023-04-29T04:11:28;9.30;;;6.63;;
77701;SDS011;66868;42.708;23.404;2023-04-29T04:13:54;13.47;;;7.10;;
77701;SDS011;66868;42.708;23.404;2023-04-29T04:16:19;8.37;;;6.40;;
77701;SDS011;66868;42.708;23.404;2023-04-29T04:18:44;12.53;;;7.17;;
77701;SDS011;66868;42.708;23.404;2023-04-29T04:21:10;10.57;;;6.77;;
77701;SDS011;66868;42.708;23.404;2023-04-29T04:23:37;11.80;;;7.27;;
77701;SDS011;66868;42.708;23.404;2023-04-29T04:26:06;10.03;;;6.33;;
77701;SDS011;66868;42.708;23.404;2023-04-29T04:28:31;11.63;;;7.10;;
77701;SDS011;66868;42.708;23.404;2023-04-29T04:30:56;18.43;;;8.10;;
77701;SDS011;66868;42.708;23.404;2023-04-29T04:33:23;9.23;;;6.50;;
77701;SDS011;66868;42.708;23.404;2023-04-29T04:35:49;10.03;;;6.97;;
77701;SDS011;66868;42.708;23.404;2023-04-29T04:38:14;16.73;;;9.10;;
77701;SDS011;66868;42.708;23.404;2023-04-29T04:40:40;23.10;;;10.40;;
77701;SDS011;66868;42.708;23.404;2023-04-29T04:43:06;22.83;;;11.57;;
77701;SDS011;66868;42.708;23.404;2023-04-29T04:45:32;15.73;;;8.77;;
77701;SDS011;66868;42.708;23.404;2023-04-29T04:47:58;8.53;;;6.50;;
77701;SDS011;66868;42.708;23.404;2023-04-29T04:50:26;7.33;;;6.63;;
77701;SDS011;66868;42.708;23.404;2023-04-29T04:52:53;10.80;;;5.93;;
77701;SDS011;66868;42.708;23.404;2023-04-29T04:55:19;11.53;;;6.93;;
77701;SDS011;66868;42.708;23.404;2023-04-29T04:57:44;11.50;;;7.00;;
77701;SDS011;66868;42.708;23.404;2023-04-29T05:00:10;13.40;;;7.90;;
77701;SDS011;66868;42.708;23.404;2023-04-29T05:02:36;11.17;;;8.00;;
77701;SDS011;66868;42.708;23.404;2023-04-29T05:05:01;13.27;;;7.27;;
77701;SDS011;66868;42.708;23.404;2023-04-29T05:07:27;11.97;;;7.90;;
77701;SDS011;66868;42.708;23.404;2023-04-29T05:09:52;16.37;;;7.30;;
77701;SDS011;66868;42.708;23.404;2023-04-29T05:12:17;11.02;;;6.97;;
77701;SDS011;66868;42.708;23.404;2023-04-29T05:14:43;8.83;;;7.90;;
77701;SDS011;66868;42.708;23.404;2023-04-29T05:17:08;14.00;;;8.40;;
77701;SDS011;66868;42.708;23.404;2023-04-29T05:19:35;14.10;;;8.15;;
77701;SDS011;66868;42.708;23.404;2023-04-29T05:22:00;9.23;;;7.93;;
77701;SDS011;66868;42.708;23.404;2023-04-29T05:24:25;12.00;;;7.82;;
77701;SDS011;66868;42.708;23.404;2023-04-29T05:26:51;15.55;;;8.32;;
77701;SDS011;66868;42.708;23.404;2023-04-29T05:29:18;15.13;;;8.98;;
77701;SDS011;66868;42.708;23.404;2023-04-29T05:31:43;16.20;;;8.07;;
77701;SDS011;66868;42.708;23.404;2023-04-29T05:34:08;18.40;;;8.07;;
77701;SDS011;66868;42.708;23.404;2023-04-29T05:36:34;15.73;;;7.57;;
77701;SDS011;66868;42.708;23.404;2023-04-29T05:38:59;103.63;;;13.02;;
77701;SDS011;66868;42.708;23.404;2023-04-29T05:41:25;24.42;;;7.75;;
77701;SDS011;66868;42.708;23.404;2023-04-29T05:43:50;9.55;;;7.07;;
77701;SDS011;66868;42.708;23.404;2023-04-29T05:46:16;15.57;;;7.47;;
77701;SDS011;66868;42.708;23.404;2023-04-29T05:48:41;8.43;;;6.97;;
77701;SDS011;66868;42.708;23.404;2023-04-29T05:51:07;10.25;;;6.72;;
77701;SDS011;66868;42.708;23.404;2023-04-29T05:53:32;13.73;;;7.88;;
77701;SDS011;66868;42.708;23.404;2023-04-29T05:55:59;9.95;;;7.10;;
77701;SDS011;66868;42.708;23.404;2023-04-29T05:58:28;11.02;;;7.20;;
77701;SDS011;66868;42.708;23.404;2023-04-29T06:00:54;11.65;;;7.43;;
77701;SDS011;66868;42.708;23.404;2023-04-29T06:03:19;11.45;;;7.38;;
77701;SDS011;66868;42.708;23.404;2023-04-29T06:05:45;9.63;;;7.15;;
77701;SDS011;66868;42.708;23.404;2023-04-29T06:08:11;10.13;;;7.22;;
77701;SDS011;66868;42.708;23.404;2023-04-29T06:10:36;10.25;;;7.47;;
77701;SDS011;66868;42.708;23.404;2023-04-29T06:13:02;8.20;;;6.28;;
77701;SDS011;66868;42.708;23.404;2023-04-29T06:15:27;13.60;;;7.55;;
77701;SDS011;66868;42.708;23.404;2023-04-29T06:17:53;11.90;;;7.78;;
77701;SDS011;66868;42.708;23.404;2023-04-29T06:20:18;10.82;;;7.10;;
77701;SDS011;66868;42.708;23.404;2023-04-29T06:22:44;8.60;;;7.80;;
77701;SDS011;66868;42.708;23.404;2023-04-29T06:25:09;11.93;;;6.72;;
77701;SDS011;66868;42.708;23.404;2023-04-29T06:27:34;11.75;;;7.82;;
77701;SDS011;66868;42.708;23.404;2023-04-29T06:30:00;11.40;;;7.15;;
77701;SDS011;66868;42.708;23.404;2023-04-29T06:32:25;12.18;;;6.18;;
77701;SDS011;66868;42.708;23.404;2023-04-29T06:34:51;12.75;;;7.97;;
77701;SDS011;66868;42.708;23.404;2023-04-29T06:37:16;20.38;;;7.40;;
77701;SDS011;66868;42.708;23.404;2023-04-29T06:39:41;10.98;;;8.23;;
77701;SDS011;66868;42.708;23.404;2023-04-29T06:42:07;7.90;;;7.10;;
77701;SDS011;66868;42.708;23.404;2023-04-29T06:44:32;11.55;;;7.35;;
77701;SDS011;66868;42.708;23.404;2023-04-29T06:46:57;7.82;;;7.13;;
77701;SDS011;66868;42.708;23.404;2023-04-29T06:49:23;9.65;;;7.20;;
77701;SDS011;66868;42.708;23.404;2023-04-29T06:51:48;8.85;;;6.60;;
77701;SDS011;66868;42.708;23.404;2023-04-29T06:54:14;11.68;;;7.22;;
77701;SDS011;66868;42.708;23.404;2023-04-29T06:56:39;10.95;;;7.75;;
77701;SDS011;66868;42.708;23.404;2023-04-29T06:59:05;15.00;;;9.40;;
77701;SDS011;66868;42.708;23.404;2023-04-29T07:01:30;10.65;;;6.80;;
77701;SDS011;66868;42.708;23.404;2023-04-29T07:03:55;10.98;;;6.57;;
77701;SDS011;66868;42.708;23.404;2023-04-29T07:06:21;29.42;;;6.95;;
77701;SDS011;66868;42.708;23.404;2023-04-29T07:08:46;17.90;;;6.20;;
77701;SDS011;66868;42.708;23.404;2023-04-29T07:11:11;10.02;;;5.75;;
77701;SDS011;66868;42.708;23.404;2023-04-29T07:13:37;5.82;;;5.30;;
77701;SDS011;66868;42.708;23.404;2023-04-29T07:16:02;8.27;;;5.28;;
77701;SDS011;66868;42.708;23.404;2023-04-29T07:18:28;5.00;;;4.68;;
77701;SDS011;66868;42.708;23.404;2023-04-29T07:20:53;6.22;;;5.63;;
77701;SDS011;66868;42.708;23.404;2023-04-29T07:23:19;9.63;;;5.03;;
77701;SDS011;66868;42.708;23.404;2023-04-29T07:25:45;8.93;;;4.90;;
77701;SDS011;66868;42.708;23.404;2023-04-29T07:28:11;5.07;;;4.68;;
77701;SDS011;66868;42.708;23.404;2023-04-29T07:30:36;5.55;;;5.15;;
77701;SDS011;66868;42.708;23.404;2023-04-29T07:33:02;11.00;;;4.97;;
77701;SDS011;66868;42.708;23.404;2023-04-29T07:35:28;5.28;;;4.80;;
77701;SDS011;66868;42.708;23.404;2023-04-29T07:37:54;6.43;;;4.90;;
77701;SDS011;66868;42.708;23.404;2023-04-29T07:40:20;8.35;;;4.75;;
77701;SDS011;66868;42.708;23.404;2023-04-29T07:42:45;7.85;;;4.78;;
77701;SDS011;66868;42.708;23.404;2023-04-29T07:45:10;5.10;;;4.70;;
77701;SDS011;66868;42.708;23.404;2023-04-29T07:47:37;6.00;;;5.25;;
77701;SDS011;66868;42.708;23.404;2023-04-29T07:50:03;11.02;;;6.00;;
77701;SDS011;66868;42.708;23.404;2023-04-29T07:52:29;6.18;;;5.03;;
77701;SDS011;66868;42.708;23.404;2023-04-29T07:54:55;8.43;;;5.15;;
77701;SDS011;66868;42.708;23.404;2023-04-29T07:57:20;15.13;;;5.43;;
77701;SDS011;66868;42.708;23.404;2023-04-29T07:59:49;5.03;;;4.55;;
77701;SDS011;66868;42.708;23.404;2023-04-29T08:02:16;5.47;;;4.50;;
77701;SDS011;66868;42.708;23.404;2023-04-29T08:04:42;5.30;;;4.63;;
77701;SDS011;66868;42.708;23.404;2023-04-29T08:07:07;6.85;;;4.85;;
77701;SDS011;66868;42.708;23.404;2023-04-29T08:09:33;5.45;;;5.05;;
77701;SDS011;66868;42.708;23.404;2023-04-29T08:11:58;8.32;;;4.82;;
77701;SDS011;66868;42.708;23.404;2023-04-29T08:14:24;5.35;;;4.93;;
77701;SDS011;66868;42.708;23.404;2023-04-29T08:16:49;4.88;;;4.43;;
77701;SDS011;66868;42.708;23.404;2023-04-29T08:19:14;11.05;;;4.38;;
77701;SDS011;66868;42.708;23.404;2023-04-29T08:21:40;9.65;;;7.80;;
77701;SDS011;66868;42.708;23.404;2023-04-29T08:24:06;9.35;;;5.10;;
77701;SDS011;66868;42.708;23.404;2023-04-29T08:26:32;15.73;;;4.53;;
77701;SDS011;66868;42.708;23.404;2023-04-29T08:28:57;6.75;;;4.35;;
77701;SDS011;66868;42.708;23.404;2023-04-29T08:31:22;10.18;;;3.92;;
77701;SDS011;66868;42.708;23.404;2023-04-29T08:33:48;4.45;;;4.10;;
77701;SDS011;66868;42.708;23.404;2023-04-29T08:36:13;16.65;;;4.10;;
77701;SDS011;66868;42.708;23.404;2023-04-29T08:38:39;7.07;;;3.80;;
77701;SDS011;66868;42.708;23.404;2023-04-29T08:41:08;8.25;;;4.18;;
77701;SDS011;66868;42.708;23.404;2023-04-29T08:43:34;7.47;;;3.90;;
77701;SDS011;66868;42.708;23.404;2023-04-29T08:46:01;5.70;;;4.13;;
77701;SDS011;66868;42.708;23.404;2023-04-29T08:48:28;7.20;;;3.92;;
77701;SDS011;66868;42.708;23.404;2023-04-29T08:50:54;8.57;;;3.10;;
77701;SDS011;66868;42.708;23.404;2023-04-29T08:53:20;6.93;;;3.60;;
77701;SDS011;66868;42.708;23.404;2023-04-29T08:55:47;12.77;;;4.20;;
77701;SDS011;66868;42.708;23.404;2023-04-29T08:58:13;13.55;;;3.75;;
77701;SDS011;66868;42.708;23.404;2023-04-29T09:00:40;16.10;;;3.97;;
77701;SDS011;66868;42.708;23.404;2023-04-29T09:03:11;18.90;;;5.75;;
77701;SDS011;66868;42.708;23.404;2023-04-29T09:05:48;14.60;;;4.53;;
77701;SDS011;66868;42.708;23.404;2023-04-29T09:08:20;3.80;;;3.50;;
77701;SDS011;66868;42.708;23.404;2023-04-29T09:10:48;9.88;;;3.67;;
77701;SDS011;66868;42.708;23.404;2023-04-29T09:13:21;6.25;;;3.08;;
77701;SDS011;66868;42.708;23.404;2023-04-29T09:19:26;7.75;;;3.00;;
77701;SDS011;66868;42.708;23.404;2023-04-29T09:21:56;6.50;;;4.22;;
77701;SDS011;66868;42.708;23.404;2023-04-29T09:24:26;9.98;;;4.22;;
77701;SDS011;66868;42.708;23.404;2023-04-29T09:26:52;8.23;;;4.38;;
77701;SDS011;66868;42.708;23.404;2023-04-29T09:29:19;3.85;;;3.35;;
77701;SDS011;66868;42.708;23.404;2023-04-29T09:31:45;6.78;;;4.07;;
77701;SDS011;66868;42.708;23.404;2023-04-29T09:34:10;5.18;;;2.97;;
77701;SDS011;66868;42.708;23.404;2023-04-29T09:36:40;4.75;;;3.25;;
77701;SDS011;66868;42.708;23.404;2023-04-29T09:39:16;6.25;;;3.47;;
77701;SDS011;66868;42.708;23.404;2023-04-29T09:44:14;2.55;;;2.45;;
77701;SDS011;66868;42.708;23.404;2023-04-29T09:46:40;2.88;;;2.67;;
77701;SDS011;66868;42.708;23.404;2023-04-29T09:49:22;11.95;;;3.13;;
77701;SDS011;66868;42.708;23.404;2023-04-29T09:51:52;8.90;;;3.90;;
77701;SDS011;66868;42.708;23.404;2023-04-29T09:54:25;7.20;;;2.47;;
77701;SDS011;66868;42.708;23.404;2023-04-29T09:56:53;5.22;;;2.72;;
77701;SDS011;66868;42.708;23.404;2023-04-29T09:59:20;4.05;;;2.55;;
77701;SDS011;66868;42.708;23.404;2023-04-29T10:01:53;3.38;;;2.25;;
77701;SDS011;66868;42.708;23.404;2023-04-29T10:04:20;6.00;;;3.03;;
77701;SDS011;66868;42.708;23.404;2023-04-29T10:06:48;4.68;;;2.92;;
77701;SDS011;66868;42.708;23.404;2023-04-29T10:09:15;6.75;;;3.78;;
77701;SDS011;66868;42.708;23.404;2023-04-29T10:11:45;11.32;;;3.97;;
77701;SDS011;66868;42.708;23.404;2023-04-29T10:14:14;8.88;;;3.72;;
77701;SDS011;66868;42.708;23.404;2023-04-29T10:16:45;4.88;;;3.03;;
77701;SDS011;66868;42.708;23.404;2023-04-29T10:19:14;5.43;;;3.63;;
77701;SDS011;66868;42.708;23.404;2023-04-29T10:21:45;9.05;;;3.70;;
77701;SDS011;66868;42.708;23.404;2023-04-29T10:24:13;2.88;;;2.75;;
77701;SDS011;66868;42.708;23.404;2023-04-29T10:26:41;4.50;;;3.33;;
77701;SDS011;66868;42.708;23.404;2023-04-29T10:29:08;3.67;;;3.33;;
77701;SDS011;66868;42.708;23.404;2023-04-29T10:31:35;3.97;;;3.45;;
77701;SDS011;66868;42.708;23.404;2023-04-29T10:34:02;5.78;;;2.97;;
77701;SDS011;66868;42.708;23.404;2023-04-29T10:36:28;5.38;;;3.22;;
77701;SDS011;66868;42.708;23.404;2023-04-29T10:38:56;3.30;;;2.92;;
77701;SDS011;66868;42.708;23.404;2023-04-29T10:44:13;5.55;;;3.38;;
77701;SDS011;66868;42.708;23.404;2023-04-29T10:46:38;3.97;;;3.35;;
77701;SDS011;66868;42.708;23.404;2023-04-29T10:49:04;5.13;;;3.90;;
77701;SDS011;66868;42.708;23.404;2023-04-29T10:54:01;12.52;;;3.95;;
77701;SDS011;66868;42.708;23.404;2023-04-29T10:56:38;7.07;;;2.70;;
77701;SDS011;66868;42.708;23.404;2023-04-29T10:59:20;3.28;;;2.88;;
77701;SDS011;66868;42.708;23.404;2023-04-29T11:02:06;8.93;;;2.28;;
77701;SDS011;66868;42.708;23.404;2023-04-29T11:04:33;5.85;;;2.58;;
77701;SDS011;66868;42.708;23.404;2023-04-29T11:06:59;8.75;;;2.92;;
77701;SDS011;66868;42.708;23.404;2023-04-29T11:09:26;5.32;;;3.30;;
77701;SDS011;66868;42.708;23.404;2023-04-29T11:12:00;11.50;;;2.92;;
77701;SDS011;66868;42.708;23.404;2023-04-29T11:17:01;4.32;;;2.35;;
77701;SDS011;66868;42.708;23.404;2023-04-29T11:19:35;2.92;;;2.20;;
77701;SDS011;66868;42.708;23.404;2023-04-29T11:24:33;4.75;;;2.88;;
77701;SDS011;66868;42.708;23.404;2023-04-29T11:27:00;5.60;;;2.80;;
77701;SDS011;66868;42.708;23.404;2023-04-29T11:29:30;3.00;;;2.80;;
77701;SDS011;66868;42.708;23.404;2023-04-29T11:31:58;3.65;;;2.20;;
77701;SDS011;66868;42.708;23.404;2023-04-29T11:34:26;6.45;;;2.78;;
77701;SDS011;66868;42.708;23.404;2023-04-29T11:36:52;4.25;;;2.47;;
77701;SDS011;66868;42.708;23.404;2023-04-29T11:39:17;5.60;;;2.65;;
77701;SDS011;66868;42.708;23.404;2023-04-29T11:41:43;4.68;;;2.45;;
77701;SDS011;66868;42.708;23.404;2023-04-29T11:44:08;2.40;;;2.20;;
77701;SDS011;66868;42.708;23.404;2023-04-29T11:46:35;7.25;;;2.47;;
77701;SDS011;66868;42.708;23.404;2023-04-29T11:49:01;4.25;;;2.25;;
77701;SDS011;66868;42.708;23.404;2023-04-29T11:51:27;6.88;;;2.83;;
77701;SDS011;66868;42.708;23.404;2023-04-29T11:53:53;5.50;;;2.58;;
77701;SDS011;66868;42.708;23.404;2023-04-29T11:56:21;2.28;;;2.17;;
77701;SDS011;66868;42.708;23.404;2023-04-29T11:58:53;3.55;;;2.22;;
77701;SDS011;66868;42.708;23.404;2023-04-29T12:01:20;2.75;;;2.20;;
77701;SDS011;66868;42.708;23.404;2023-04-29T12:03:47;2.40;;;2.20;;
77701;SDS011;66868;42.708;23.404;2023-04-29T12:06:14;30.92;;;18.30;;
77701;SDS011;66868;42.708;23.404;2023-04-29T12:08:40;2.80;;;2.60;;
77701;SDS011;66868;42.708;23.404;2023-04-29T12:11:06;2.85;;;2.20;;
77701;SDS011;66868;42.708;23.404;2023-04-29T12:13:31;2.38;;;2.17;;
77701;SDS011;66868;42.708;23.404;2023-04-29T12:15:59;2.28;;;2.15;;
77701;SDS011;66868;42.708;23.404;2023-04-29T12:18:25;4.60;;;2.53;;
77701;SDS011;66868;42.708;23.404;2023-04-29T12:20:51;2.50;;;2.30;;
77701;SDS011;66868;42.708;23.404;2023-04-29T12:23:20;7.13;;;2.53;;
77701;SDS011;66868;42.708;23.404;2023-04-29T12:25:54;5.53;;;2.75;;
77701;SDS011;66868;42.708;23.404;2023-04-29T12:28:21;3.17;;;2.25;;
77701;SDS011;66868;42.708;23.404;2023-04-29T12:30:47;7.20;;;2.65;;
77701;SDS011;66868;42.708;23.404;2023-04-29T12:33:15;2.20;;;2.00;;
77701;SDS011;66868;42.708;23.404;2023-04-29T12:35:51;2.35;;;1.80;;
77701;SDS011;66868;42.708;23.404;2023-04-29T12:38:19;2.67;;;1.83;;
77701;SDS011;66868;42.708;23.404;2023-04-29T12:40:48;2.30;;;1.98;;
77701;SDS011;66868;42.708;23.404;2023-04-29T12:43:15;5.07;;;2.22;;
77701;SDS011;66868;42.708;23.404;2023-04-29T12:45:40;3.65;;;2.17;;
77701;SDS011;66868;42.708;23.404;2023-04-29T12:48:06;3.47;;;1.88;;
77701;SDS011;66868;42.708;23.404;2023-04-29T12:50:33;3.20;;;2.90;;
77701;SDS011;66868;42.708;23.404;2023-04-29T12:53:00;2.15;;;1.75;;
77701;SDS011;66868;42.708;23.404;2023-04-29T12:55:27;2.60;;;2.22;;
77701;SDS011;66868;42.708;23.404;2023-04-29T12:57:53;3.80;;;1.70;;
77701;SDS011;66868;42.708;23.404;2023-04-29T13:00:18;2.20;;;2.00;;
77701;SDS011;66868;42.708;23.404;2023-04-29T13:02:46;4.40;;;2.03;;
77701;SDS011;66868;42.708;23.404;2023-04-29T13:05:12;4.07;;;1.90;;
77701;SDS011;66868;42.708;23.404;2023-04-29T13:07:37;2.35;;;1.92;;
77701;SDS011;66868;42.708;23.404;2023-04-29T13:10:03;2.28;;;2.00;;
77701;SDS011;66868;42.708;23.404;2023-04-29T13:12:32;3.50;;;2.15;;
77701;SDS011;66868;42.708;23.404;2023-04-29T13:14:58;6.82;;;1.92;;
77701;SDS011;66868;42.708;23.404;2023-04-29T13:17:23;3.40;;;2.15;;
77701;SDS011;66868;42.708;23.404;2023-04-29T13:19:49;4.22;;;2.08;;
77701;SDS011;66868;42.708;23.404;2023-04-29T13:22:15;3.33;;;2.53;;
77701;SDS011;66868;42.708;23.404;2023-04-29T13:24:41;3.80;;;2.10;;
77701;SDS011;66868;42.708;23.404;2023-04-29T13:27:06;2.63;;;2.45;;
77701;SDS011;66868;42.708;23.404;2023-04-29T13:29:32;10.93;;;2.33;;
77701;SDS011;66868;42.708;23.404;2023-04-29T13:31:57;7.88;;;3.05;;
77701;SDS011;66868;42.708;23.404;2023-04-29T13:34:22;1.90;;;1.45;;
77701;SDS011;66868;42.708;23.404;2023-04-29T13:36:48;1.55;;;1.42;;
77701;SDS011;66868;42.708;23.404;2023-04-29T13:39:13;1.40;;;1.30;;
77701;SDS011;66868;42.708;23.404;2023-04-29T13:41:38;1.65;;;1.55;;
77701;SDS011;66868;42.708;23.404;2023-04-29T13:44:04;4.10;;;1.85;;
77701;SDS011;66868;42.708;23.404;2023-04-29T13:46:29;2.10;;;1.90;;
77701;SDS011;66868;42.708;23.404;2023-04-29T13:48:55;6.03;;;4.05;;
77701;SDS011;66868;42.708;23.404;2023-04-29T13:51:21;14.88;;;4.38;;
77701;SDS011;66868;42.708;23.404;2023-04-29T13:53:46;6.13;;;4.57;;
77701;SDS011;66868;42.708;23.404;2023-04-29T13:56:12;2.17;;;1.98;;
77701;SDS011;66868;42.708;23.404;2023-04-29T13:58:37;6.57;;;1.75;;
77701;SDS011;66868;42.708;23.404;2023-04-29T14:01:02;1.90;;;1.80;;
77701;SDS011;66868;42.708;23.404;2023-04-29T14:03:28;1.42;;;1.42;;
77701;SDS011;66868;42.708;23.404;2023-04-29T14:05:53;1.52;;;1.40;;
77701;SDS011;66868;42.708;23.404;2023-04-29T14:08:19;1.90;;;1.80;;
77701;SDS011;66868;42.708;23.404;2023-04-29T14:10:44;2.45;;;1.60;;
77701;SDS011;66868;42.708;23.404;2023-04-29T14:13:10;2.63;;;1.52;;
77701;SDS011;66868;42.708;23.404;2023-04-29T14:15:35;1.55;;;1.55;;
77701;SDS011;66868;42.708;23.404;2023-04-29T14:18:00;1.65;;;1.55;;
77701;SDS011;66868;42.708;23.404;2023-04-29T14:20:26;22.60;;;15.25;;
77701;SDS011;66868;42.708;23.404;2023-04-29T14:22:52;9.82;;;7.22;;
77701;SDS011;66868;42.708;23.404;2023-04-29T14:25:17;6.95;;;3.85;;
77701;SDS011;66868;42.708;23.404;2023-04-29T14:27:42;5.25;;;2.28;;
77701;SDS011;66868;42.708;23.404;2023-04-29T14:30:08;3.88;;;1.70;;
77701;SDS011;66868;42.708;23.404;2023-04-29T14:32:33;2.42;;;1.60;;
77701;SDS011;66868;42.708;23.404;2023-04-29T14:34:59;3.85;;;1.90;;
77701;SDS011;66868;42.708;23.404;2023-04-29T14:37:24;1.60;;;1.50;;
77701;SDS011;66868;42.708;23.404;2023-04-29T14:39:50;1.63;;;1.25;;
77701;SDS011;66868;42.708;23.404;2023-04-29T14:42:16;1.88;;;1.50;;
77701;SDS011;66868;42.708;23.404;2023-04-29T14:44:42;1.48;;;1.40;;
77701;SDS011;66868;42.708;23.404;2023-04-29T14:47:08;3.33;;;1.50;;
77701;SDS011;66868;42.708;23.404;2023-04-29T14:49:33;1.60;;;1.50;;
77701;SDS011;66868;42.708;23.404;2023-04-29T14:51:58;2.10;;;1.92;;
77701;SDS011;66868;42.708;23.404;2023-04-29T14:54:24;3.40;;;1.40;;